Time;durP1;ratioP1;P1;durP2;ratioP2;P2;SDS_P1;SDS_P2;PMS_P1;PMS_P2;Temp;Humidity;BMP_temperature;BMP_pressure;BME280_temperature;BME280_humidity;BME280_pressure;Samples;Min_cycle;Max_cycle;Signal;HPM_P1;HPM_P2
2023/01/19 00:00:54;;;;;;;24.50;17.87;;;-0.80;99.90;;;;;;6154078;23;20405;-76
2023/01/19 00:03:22;;;;;;;24.07;17.80;;;-0.70;99.90;;;;;;6154269;23;20452;-76
2023/01/19 00:05:51;;;;;;;25.93;18.00;;;-0.70;99.90;;;;;;6154501;23;20503;-77
2023/01/19 00:08:19;;;;;;;21.97;17.57;;;-0.70;99.90;;;;;;6153407;23;20499;-76
2023/01/19 00:10:49;;;;;;;24.20;18.10;;;-0.70;99.90;;;;;;6153779;23;20397;-75
2023/01/19 00:13:18;;;;;;;23.63;17.40;;;-0.70;99.90;;;;;;6153978;23;20411;-77
2023/01/19 00:15:48;;;;;;;22.53;17.60;;;-0.70;99.90;;;;;;6154655;23;20405;-76
2023/01/19 00:18:16;;;;;;;26.33;17.70;;;-0.70;99.90;;;;;;6154588;23;20915;-77
2023/01/19 00:20:46;;;;;;;23.87;19.03;;;-0.80;99.90;;;;;;6154292;23;20413;-75
2023/01/19 00:23:14;;;;;;;23.23;18.53;;;-0.80;99.90;;;;;;6153893;23;20900;-76
2023/01/19 00:25:43;;;;;;;27.53;19.80;;;-0.80;99.90;;;;;;6154369;23;20409;-77
2023/01/19 00:28:13;;;;;;;24.63;20.23;;;-0.70;99.90;;;;;;6153824;23;20409;-75
2023/01/19 00:30:42;;;;;;;25.60;19.77;;;-0.80;99.90;;;;;;6153928;23;20464;-77
2023/01/19 00:33:13;;;;;;;26.57;21.27;;;-0.90;99.90;;;;;;6153918;23;20896;-75
2023/01/19 00:35:42;;;;;;;28.13;21.40;;;-0.80;99.90;;;;;;6154651;23;20857;-75
2023/01/19 00:38:11;;;;;;;27.80;21.77;;;-0.80;99.90;;;;;;6154111;23;20397;-75
2023/01/19 00:40:39;;;;;;;26.37;20.70;;;-0.80;99.90;;;;;;6153744;23;20738;-75
2023/01/19 00:43:07;;;;;;;28.57;23.10;;;-0.80;99.90;;;;;;6153985;23;20415;-75
2023/01/19 00:45:36;;;;;;;31.27;22.30;;;-0.80;99.90;;;;;;6153816;23;20981;-75
2023/01/19 00:48:04;;;;;;;27.60;22.17;;;-0.80;99.90;;;;;;6153998;23;20415;-75
2023/01/19 00:50:34;;;;;;;30.33;22.40;;;-0.80;99.90;;;;;;6154510;23;20428;-75
2023/01/19 00:53:02;;;;;;;29.73;22.03;;;-0.80;99.90;;;;;;6153965;23;20444;-76
2023/01/19 00:55:32;;;;;;;27.80;21.07;;;-0.80;99.90;;;;;;6154288;23;20492;-75
2023/01/19 00:58:01;;;;;;;27.50;20.93;;;-0.80;99.90;;;;;;6154029;23;20417;-74
2023/01/19 01:00:29;;;;;;;28.07;21.83;;;-0.90;99.90;;;;;;6153887;23;20489;-75
2023/01/19 01:02:58;;;;;;;26.37;20.47;;;-0.80;99.90;;;;;;6154024;23;20429;-75
2023/01/19 01:05:26;;;;;;;28.27;21.50;;;-0.90;99.90;;;;;;6154663;23;20445;-75
2023/01/19 01:07:56;;;;;;;28.67;20.83;;;-0.90;99.90;;;;;;6154625;23;20448;-75
2023/01/19 01:10:26;;;;;;;26.10;19.93;;;-0.90;99.90;;;;;;6153952;23;20420;-77
2023/01/19 01:12:54;;;;;;;25.73;19.13;;;-0.90;99.90;;;;;;6154885;23;20466;-76
2023/01/19 01:15:26;;;;;;;25.40;18.67;;;-0.90;99.90;;;;;;6156908;23;20414;-77
2023/01/19 01:17:55;;;;;;;24.23;18.80;;;-1.00;99.90;;;;;;6155867;23;20441;-74
2023/01/19 01:20:26;;;;;;;23.33;18.67;;;-1.00;99.90;;;;;;6156250;23;20507;-75
2023/01/19 01:22:57;;;;;;;24.57;18.20;;;-1.00;99.90;;;;;;6155624;23;20397;-75
2023/01/19 01:25:27;;;;;;;22.60;17.40;;;-1.00;99.90;;;;;;6154379;23;20471;-75
2023/01/19 01:27:55;;;;;;;23.77;17.57;;;-0.90;99.90;;;;;;6156229;23;20727;-75
2023/01/19 01:30:23;;;;;;;22.23;17.10;;;-1.00;99.90;;;;;;6153827;23;20409;-75
2023/01/19 01:32:51;;;;;;;23.20;16.97;;;-1.00;99.90;;;;;;6154187;23;20412;-76
2023/01/19 01:35:19;;;;;;;21.10;16.27;;;-1.00;99.90;;;;;;6153743;23;20419;-76
2023/01/19 01:37:48;;;;;;;21.13;15.87;;;-1.00;99.90;;;;;;6154199;23;20413;-76
2023/01/19 01:40:19;;;;;;;20.47;16.23;;;-1.00;99.90;;;;;;6154162;23;20445;-74
2023/01/19 01:42:47;;;;;;;22.47;15.43;;;-1.00;99.90;;;;;;6154123;23;20425;-75
2023/01/19 01:45:30;;;;;;;18.73;15.00;;;-1.00;99.90;;;;;;6155620;23;20443;-74
2023/01/19 01:48:07;;;;;;;20.57;15.30;;;-1.10;99.90;;;;;;6155936;23;20412;-75
2023/01/19 01:51:22;;;;;;;23.10;14.90;;;-1.10;99.90;;;;;;6156453;23;20803;-77
2023/01/19 01:53:29;;;;;;;20.13;14.63;;;-1.10;99.90;;;;;;6155556;23;20411;-77
2023/01/19 01:55:59;;;;;;;16.50;11.80;;;-1.20;99.90;;;;;;6155946;23;20386;-77
2023/01/19 01:58:27;;;;;;;20.03;11.50;;;-1.20;99.90;;;;;;6155651;23;20502;-75
2023/01/19 02:03:42;;;;;;;12.73;8.17;;;-1.30;99.90;;;;;;6155327;23;20945;-77
2023/01/19 02:06:11;;;;;;;13.57;8.37;;;-1.40;99.90;;;;;;6155758;23;20505;-76
2023/01/19 02:14:17;;;;;;;15.27;9.50;;;-1.50;99.90;;;;;;6156170;23;20460;-77
2023/01/19 02:16:46;;;;;;;14.57;9.90;;;-1.50;99.90;;;;;;6156096;23;20432;-75
2023/01/19 02:19:25;;;;;;;14.37;9.83;;;-1.50;99.90;;;;;;6155816;23;20405;-77
2023/01/19 02:21:59;;;;;;;15.33;9.70;;;-1.50;99.90;;;;;;6156134;23;20411;-77
2023/01/19 02:24:30;;;;;;;12.77;9.33;;;-1.50;99.90;;;;;;6155717;23;20429;-77
2023/01/19 02:26:59;;;;;;;14.33;9.87;;;-1.50;99.90;;;;;;6154198;23;20463;-76
2023/01/19 02:29:28;;;;;;;13.33;9.83;;;-1.50;99.90;;;;;;6155449;23;20416;-75
2023/01/19 02:31:58;;;;;;;13.27;10.13;;;-1.50;99.90;;;;;;6154680;23;20923;-78
2023/01/19 02:34:26;;;;;;;17.07;10.83;;;-1.60;99.90;;;;;;6155988;23;20700;-75
2023/01/19 02:36:57;;;;;;;16.67;10.20;;;-1.60;99.90;;;;;;6154760;23;20429;-76
2023/01/19 02:39:31;;;;;;;14.13;9.60;;;-1.60;99.90;;;;;;6155636;23;20390;-76
2023/01/19 02:42:03;;;;;;;11.80;9.30;;;-1.60;99.90;;;;;;6155222;23;20410;-76
2023/01/19 02:44:32;;;;;;;14.27;9.03;;;-1.60;99.90;;;;;;6155542;23;20420;-76
2023/01/19 02:47:00;;;;;;;14.03;9.57;;;-1.60;99.90;;;;;;6156530;23;20413;-75
2023/01/19 02:49:30;;;;;;;16.33;10.17;;;-1.60;99.90;;;;;;6158891;23;20485;-76
2023/01/19 02:51:59;;;;;;;18.47;11.33;;;-1.60;99.90;;;;;;6157561;23;20932;-75
2023/01/19 02:54:40;;;;;;;19.13;11.90;;;-1.70;99.90;;;;;;6157078;23;20414;-78
2023/01/19 02:57:22;;;;;;;19.90;12.13;;;-1.70;99.90;;;;;;6157226;23;20417;-77
2023/01/19 03:00:06;;;;;;;22.37;13.33;;;-1.60;99.90;;;;;;6156330;23;20421;-76
2023/01/19 03:02:46;;;;;;;16.97;13.27;;;-1.60;99.90;;;;;;6155250;23;20769;-76
2023/01/19 03:05:33;;;;;;;21.20;13.37;;;-1.60;99.90;;;;;;6155226;23;20449;-76
2023/01/19 03:08:12;;;;;;;17.20;12.00;;;-1.70;99.90;;;;;;6155443;23;20385;-78
2023/01/19 03:10:51;;;;;;;20.07;14.43;;;-1.70;99.90;;;;;;6155017;23;20423;-78
2023/01/19 03:13:27;;;;;;;17.73;13.93;;;-1.70;99.90;;;;;;6155342;23;20480;-76
2023/01/19 03:16:01;;;;;;;18.53;14.00;;;-1.70;99.90;;;;;;6155256;23;20739;-76
2023/01/19 03:18:32;;;;;;;19.67;14.77;;;-1.60;99.90;;;;;;6155211;23;20432;-77
2023/01/19 03:21:05;;;;;;;20.77;15.63;;;-1.60;99.90;;;;;;6155406;23;20416;-77
2023/01/19 03:23:37;;;;;;;19.33;15.13;;;-1.60;99.90;;;;;;6155095;23;20488;-76
2023/01/19 03:26:10;;;;;;;22.93;15.67;;;-1.60;99.90;;;;;;6154691;23;20532;-76
2023/01/19 03:28:42;;;;;;;21.83;15.80;;;-1.60;99.90;;;;;;6155067;23;20472;-77
2023/01/19 03:31:14;;;;;;;22.17;16.53;;;-1.60;99.90;;;;;;6155288;23;20397;-78
2023/01/19 03:33:46;;;;;;;23.07;16.67;;;-1.60;99.90;;;;;;6154706;23;20405;-76
2023/01/19 03:36:19;;;;;;;20.83;16.70;;;-1.60;99.90;;;;;;6154882;23;20480;-76
2023/01/19 03:38:49;;;;;;;20.50;16.07;;;-1.60;99.90;;;;;;6154973;23;20389;-76
2023/01/19 03:41:22;;;;;;;24.23;16.30;;;-1.60;99.90;;;;;;6155228;23;20713;-77
2023/01/19 03:43:52;;;;;;;25.17;18.07;;;-1.60;99.90;;;;;;6154884;23;20429;-78
2023/01/19 03:46:21;;;;;;;23.23;16.73;;;-1.60;99.90;;;;;;6154584;23;20444;-76
2023/01/19 03:48:50;;;;;;;25.00;16.57;;;-1.60;99.90;;;;;;6154304;23;21096;-76
2023/01/19 03:51:19;;;;;;;24.10;17.53;;;-1.60;99.90;;;;;;6155141;23;20405;-75
2023/01/19 03:53:48;;;;;;;22.20;17.50;;;-1.60;99.90;;;;;;6154577;23;20405;-75
2023/01/19 03:56:22;;;;;;;22.30;17.67;;;-1.60;99.90;;;;;;6154070;23;20412;-77
2023/01/19 03:58:51;;;;;;;23.67;18.47;;;-1.60;99.90;;;;;;6154144;23;20423;-76
2023/01/19 04:01:21;;;;;;;21.53;16.43;;;-1.60;99.90;;;;;;6154228;23;20988;-77
2023/01/19 04:03:50;;;;;;;24.43;16.33;;;-1.70;99.90;;;;;;6154766;23;20967;-76
2023/01/19 04:06:19;;;;;;;20.70;16.60;;;-1.70;99.90;;;;;;6153364;23;20842;-76
2023/01/19 04:08:48;;;;;;;20.73;15.57;;;-1.70;99.90;;;;;;6154895;23;20533;-76
2023/01/19 04:11:18;;;;;;;20.13;15.37;;;-1.70;99.90;;;;;;6154424;23;20404;-75
2023/01/19 04:13:47;;;;;;;19.50;14.70;;;-1.80;99.90;;;;;;6153992;23;20451;-77
2023/01/19 04:16:18;;;;;;;19.17;14.60;;;-1.70;99.90;;;;;;6153843;23;20413;-77
2023/01/19 04:18:47;;;;;;;20.97;15.23;;;-1.80;99.90;;;;;;6154459;23;20448;-75
2023/01/19 04:21:15;;;;;;;21.27;15.70;;;-1.70;99.90;;;;;;6154253;23;20492;-77
2023/01/19 04:23:44;;;;;;;19.37;14.87;;;-1.80;99.90;;;;;;6154397;23;20493;-77
2023/01/19 04:26:13;;;;;;;20.03;15.03;;;-1.80;99.90;;;;;;6154433;23;20476;-77
2023/01/19 04:28:41;;;;;;;20.47;15.73;;;-1.80;99.90;;;;;;6154434;23;20737;-77
2023/01/19 04:31:11;;;;;;;22.90;16.30;;;-1.80;99.90;;;;;;6154628;23;20492;-77
2023/01/19 04:33:39;;;;;;;23.07;16.03;;;-1.80;99.90;;;;;;6153889;23;20929;-77
2023/01/19 04:36:08;;;;;;;22.27;16.07;;;-1.90;99.90;;;;;;6154146;23;20409;-77
2023/01/19 04:38:36;;;;;;;20.60;16.03;;;-1.80;99.90;;;;;;6154376;23;20739;-77
2023/01/19 04:41:04;;;;;;;21.17;16.37;;;-1.80;99.90;;;;;;6154365;23;20413;-77
2023/01/19 04:43:32;;;;;;;20.80;15.73;;;-1.90;99.90;;;;;;6153883;23;20465;-76
2023/01/19 04:46:01;;;;;;;19.83;15.47;;;-1.90;99.90;;;;;;6153612;23;20437;-77
2023/01/19 04:48:30;;;;;;;19.00;15.43;;;-1.90;99.90;;;;;;6154237;23;20444;-76
2023/01/19 04:50:58;;;;;;;21.60;16.57;;;-2.00;99.90;;;;;;6154201;23;20452;-75
2023/01/19 04:53:26;;;;;;;22.00;17.20;;;-2.00;99.90;;;;;;6153969;23;20417;-75
2023/01/19 04:55:55;;;;;;;21.33;16.90;;;-2.00;99.90;;;;;;6153743;23;20496;-75
2023/01/19 04:58:23;;;;;;;21.57;17.70;;;-1.90;99.90;;;;;;6154239;23;20421;-75
2023/01/19 05:00:52;;;;;;;19.97;17.67;;;-1.90;99.90;;;;;;6153947;23;20409;-75
2023/01/19 05:03:20;;;;;;;21.60;18.10;;;-1.90;99.90;;;;;;6153631;23;20479;-75
2023/01/19 05:05:50;;;;;;;22.60;18.83;;;-1.90;99.90;;;;;;6154201;23;20770;-75
2023/01/19 05:08:18;;;;;;;24.93;18.80;;;-1.90;99.90;;;;;;6154093;23;20404;-75
2023/01/19 05:10:45;;;;;;;23.17;19.10;;;-1.90;99.90;;;;;;6154723;23;20419;-76
2023/01/19 05:13:14;;;;;;;26.03;19.10;;;-1.90;99.90;;;;;;6153545;23;20453;-75
2023/01/19 05:15:42;;;;;;;23.37;18.60;;;-1.90;99.90;;;;;;6154260;23;20416;-76
2023/01/19 05:18:10;;;;;;;23.90;19.27;;;-1.90;99.90;;;;;;6155499;23;20421;-75
2023/01/19 05:20:39;;;;;;;24.70;18.70;;;-2.00;99.90;;;;;;6156159;23;20409;-76
2023/01/19 05:23:08;;;;;;;23.00;18.83;;;-1.90;99.90;;;;;;6155748;23;20405;-75
2023/01/19 05:25:37;;;;;;;24.27;19.17;;;-2.10;99.90;;;;;;6156310;23;20741;-75
2023/01/19 05:28:05;;;;;;;22.77;19.27;;;-2.00;99.90;;;;;;6157415;23;20411;-76
2023/01/19 05:30:33;;;;;;;21.33;18.03;;;-2.00;99.90;;;;;;6164559;23;20420;-76
2023/01/19 05:33:01;;;;;;;24.97;18.17;;;-2.10;99.90;;;;;;6156837;23;20413;-76
2023/01/19 05:35:29;;;;;;;23.27;17.90;;;-2.10;99.90;;;;;;6155224;23;20924;-76
2023/01/19 05:38:03;;;;;;;20.63;17.73;;;-2.10;99.90;;;;;;6155661;23;20736;-76
2023/01/19 05:40:33;;;;;;;21.97;17.93;;;-2.20;99.90;;;;;;6155902;23;20725;-75
2023/01/19 05:43:03;;;;;;;24.93;18.20;;;-2.20;99.90;;;;;;6155419;23;20427;-75
2023/01/19 05:45:32;;;;;;;21.80;17.20;;;-2.20;99.90;;;;;;6155923;23;20396;-75
2023/01/19 05:48:01;;;;;;;21.43;18.00;;;-2.30;99.90;;;;;;6156669;23;20464;-78
2023/01/19 05:50:29;;;;;;;22.57;17.87;;;-2.30;99.90;;;;;;6156145;23;20402;-76
2023/01/19 05:52:58;;;;;;;24.93;17.57;;;-2.30;99.90;;;;;;6154863;23;20507;-75
2023/01/19 05:55:28;;;;;;;23.17;16.80;;;-2.30;99.90;;;;;;6155832;23;20914;-75
2023/01/19 05:57:57;;;;;;;23.03;17.27;;;-2.40;99.90;;;;;;6155213;23;20913;-75
2023/01/19 06:00:27;;;;;;;20.97;16.70;;;-2.40;99.90;;;;;;6154778;23;20967;-75
2023/01/19 06:02:56;;;;;;;25.30;17.10;;;-2.40;99.90;;;;;;6155044;23;20544;-78
2023/01/19 06:05:24;;;;;;;24.20;17.33;;;-2.40;99.90;;;;;;6155971;23;20742;-75
2023/01/19 06:07:52;;;;;;;22.27;17.00;;;-2.50;99.90;;;;;;6155456;23;20456;-77
2023/01/19 06:10:20;;;;;;;22.50;17.80;;;-2.50;99.90;;;;;;6155889;23;20988;-76
2023/01/19 06:12:49;;;;;;;20.73;16.90;;;-2.50;99.90;;;;;;6155820;23;20425;-75
2023/01/19 06:15:18;;;;;;;24.53;17.53;;;-2.50;99.90;;;;;;6155284;23;20444;-76
2023/01/19 06:17:47;;;;;;;23.00;17.37;;;-2.40;99.90;;;;;;6155765;23;20456;-77
2023/01/19 06:20:15;;;;;;;22.53;16.80;;;-2.40;99.90;;;;;;6155333;23;20423;-75
2023/01/19 06:22:43;;;;;;;24.60;17.30;;;-2.40;99.90;;;;;;6155474;23;20393;-75
2023/01/19 06:25:13;;;;;;;21.67;17.33;;;-2.40;99.90;;;;;;6155043;23;20512;-77
2023/01/19 06:27:44;;;;;;;24.43;17.20;;;-2.40;99.90;;;;;;6155220;23;20443;-75
2023/01/19 06:30:13;;;;;;;26.20;18.13;;;-2.40;99.90;;;;;;6154758;23;20390;-77
2023/01/19 06:32:42;;;;;;;22.50;17.93;;;-2.40;99.90;;;;;;6154416;23;20425;-77
2023/01/19 06:35:11;;;;;;;23.40;17.77;;;-2.40;99.90;;;;;;6155227;23;20801;-76
2023/01/19 06:37:39;;;;;;;23.03;17.50;;;-2.40;99.90;;;;;;6155247;23;20441;-77
2023/01/19 06:40:08;;;;;;;23.13;17.30;;;-2.40;99.90;;;;;;6155588;23;20411;-76
2023/01/19 06:42:36;;;;;;;24.10;17.17;;;-2.40;99.90;;;;;;6154454;23;20449;-77
2023/01/19 06:45:05;;;;;;;20.97;17.43;;;-2.50;99.90;;;;;;6155464;23;20416;-76
2023/01/19 06:47:33;;;;;;;22.73;18.00;;;-2.50;99.90;;;;;;6155351;23;20452;-75
2023/01/19 06:50:03;;;;;;;22.53;18.07;;;-2.50;99.90;;;;;;6154833;23;20416;-75
2023/01/19 06:52:31;;;;;;;26.87;18.00;;;-2.50;99.90;;;;;;6155134;23;20421;-77
2023/01/19 06:54:59;;;;;;;22.87;18.93;;;-2.60;99.90;;;;;;6154886;23;20508;-76
2023/01/19 06:57:27;;;;;;;24.80;19.13;;;-2.60;99.90;;;;;;6154719;23;20453;-76
2023/01/19 06:59:57;;;;;;;25.10;18.93;;;-2.60;99.90;;;;;;6154958;23;20409;-75
2023/01/19 07:02:25;;;;;;;24.90;18.50;;;-2.60;99.90;;;;;;6155700;23;20436;-77
2023/01/19 07:04:55;;;;;;;24.77;18.93;;;-2.60;99.90;;;;;;6155073;23;20991;-77
2023/01/19 07:07:25;;;;;;;22.97;18.43;;;-2.70;99.90;;;;;;6154392;23;20496;-76
2023/01/19 07:09:53;;;;;;;24.33;18.70;;;-2.70;99.90;;;;;;6154962;23;20921;-78
2023/01/19 07:12:22;;;;;;;24.60;18.37;;;-2.70;99.90;;;;;;6154389;23;20943;-78
2023/01/19 07:14:53;;;;;;;29.23;18.40;;;-2.70;99.90;;;;;;6154887;23;20405;-77
2023/01/19 07:17:21;;;;;;;25.03;18.67;;;-2.70;99.90;;;;;;6154683;23;20429;-77
2023/01/19 07:19:49;;;;;;;23.40;18.07;;;-2.70;99.90;;;;;;6155231;23;20508;-77
2023/01/19 07:22:18;;;;;;;25.27;18.73;;;-2.70;99.90;;;;;;6155378;23;20405;-77
2023/01/19 07:24:47;;;;;;;22.27;18.90;;;-2.70;99.90;;;;;;6154861;23;20436;-77
2023/01/19 07:27:16;;;;;;;24.80;18.70;;;-2.70;99.90;;;;;;6154683;23;20452;-76
2023/01/19 07:29:44;;;;;;;27.13;18.80;;;-2.70;99.90;;;;;;6155213;23;20420;-76
2023/01/19 07:32:12;;;;;;;27.00;18.93;;;-2.70;99.90;;;;;;6154531;23;20496;-76
2023/01/19 07:34:40;;;;;;;23.73;18.20;;;-2.60;99.90;;;;;;6154641;23;20414;-78
2023/01/19 07:37:08;;;;;;;25.43;18.30;;;-2.60;99.90;;;;;;6154422;23;20455;-76
2023/01/19 07:39:36;;;;;;;25.73;18.17;;;-2.60;99.90;;;;;;6154213;23;20410;-76
2023/01/19 07:42:07;;;;;;;24.10;18.40;;;-2.60;99.90;;;;;;6153876;23;20752;-76
2023/01/19 07:44:35;;;;;;;23.43;18.33;;;-2.60;99.90;;;;;;6154719;23;20414;-77
2023/01/19 07:47:06;;;;;;;25.00;17.67;;;-2.60;99.90;;;;;;6154274;23;20814;-77
2023/01/19 07:49:35;;;;;;;22.07;17.60;;;-2.60;99.90;;;;;;6154513;23;20390;-77
2023/01/19 07:52:04;;;;;;;24.23;18.57;;;-2.60;99.90;;;;;;6154517;23;20417;-76
2023/01/19 07:54:32;;;;;;;29.97;22.83;;;-2.70;99.90;;;;;;6154857;23;20492;-76
2023/01/19 07:57:01;;;;;;;25.40;21.67;;;-2.70;99.90;;;;;;6154501;23;20492;-76
2023/01/19 07:59:31;;;;;;;32.53;27.67;;;-2.60;99.90;;;;;;6154356;23;20488;-77
2023/01/19 08:01:59;;;;;;;25.27;21.17;;;-2.60;99.90;;;;;;6154427;23;20425;-77
2023/01/19 08:04:28;;;;;;;25.67;18.63;;;-2.60;99.90;;;;;;6154702;23;20415;-76
2023/01/19 08:06:56;;;;;;;28.17;18.93;;;-2.60;99.90;;;;;;6154881;23;20413;-78
2023/01/19 08:09:24;;;;;;;23.67;18.70;;;-2.60;99.90;;;;;;6153923;23;21024;-78
2023/01/19 08:11:52;;;;;;;21.87;18.07;;;-2.50;99.90;;;;;;6154487;23;20451;-76
2023/01/19 08:14:20;;;;;;;21.87;17.10;;;-2.40;99.90;;;;;;6154439;23;20504;-76
2023/01/19 08:16:51;;;;;;;21.03;17.70;;;-2.30;99.90;;;;;;6154524;23;20440;-76
2023/01/19 08:19:19;;;;;;;21.17;17.27;;;-2.20;99.90;;;;;;6154100;23;20885;-76
2023/01/19 08:21:47;;;;;;;22.03;16.80;;;-2.20;99.90;;;;;;6154298;23;21134;-77
2023/01/19 08:24:20;;;;;;;25.83;17.97;;;-2.10;99.90;;;;;;6154394;23;20791;-77
2023/01/19 08:26:48;;;;;;;21.10;15.90;;;-2.10;99.90;;;;;;6154387;23;20882;-71
2023/01/19 08:29:17;;;;;;;21.97;16.67;;;-2.00;99.90;;;;;;6153863;23;20778;-79
2023/01/19 08:31:45;;;;;;;18.10;15.30;;;-1.60;99.90;;;;;;6154663;23;20447;-78
2023/01/19 08:34:15;;;;;;;21.37;15.20;;;-1.50;99.90;;;;;;6152559;23;20416;-79
2023/01/19 08:36:43;;;;;;;18.83;15.63;;;-1.60;99.90;;;;;;6153987;23;20409;-79
2023/01/19 08:39:12;;;;;;;19.80;15.10;;;-1.40;99.90;;;;;;6154908;23;20430;-79
2023/01/19 08:41:40;;;;;;;18.13;14.60;;;-1.30;99.90;;;;;;6154465;23;20920;-79
2023/01/19 08:44:08;;;;;;;31.07;20.87;;;-1.40;99.90;;;;;;6154208;23;20504;-79
2023/01/19 08:46:36;;;;;;;21.43;16.10;;;-1.20;99.90;;;;;;6154909;23;20415;-80
2023/01/19 08:49:05;;;;;;;20.90;16.10;;;-1.20;99.90;;;;;;6155346;23;20586;-79
2023/01/19 08:51:34;;;;;;;22.07;16.47;;;-1.20;99.90;;;;;;6153604;23;20452;-79
2023/01/19 08:54:02;;;;;;;19.53;14.67;;;-1.10;99.90;;;;;;6154504;23;20415;-79
2023/01/19 08:56:30;;;;;;;17.90;14.97;;;-1.10;99.90;;;;;;6154155;23;20947;-80
2023/01/19 08:58:59;;;;;;;18.00;15.47;;;-1.00;99.90;;;;;;6154775;23;20497;-80
2023/01/19 09:01:37;;;;;;;18.90;14.63;;;-1.00;99.90;;;;;;6154323;23;20435;-79
2023/01/19 09:04:06;;;;;;;19.67;16.30;;;-0.90;99.90;;;;;;6154589;23;20429;-79
2023/01/19 09:06:36;;;;;;;18.10;14.93;;;-0.90;99.90;;;;;;6153499;23;20959;-78
2023/01/19 09:09:04;;;;;;;18.50;14.50;;;-0.90;99.90;;;;;;6153871;23;20788;-78
2023/01/19 09:11:33;;;;;;;18.63;14.07;;;-0.90;99.90;;;;;;6151226;23;20901;-80
2023/01/19 09:14:03;;;;;;;18.47;14.80;;;-0.90;99.90;;;;;;6154073;23;20413;-78
2023/01/19 09:16:31;;;;;;;18.20;14.43;;;-0.80;99.90;;;;;;6154276;23;20445;-78
2023/01/19 09:18:59;;;;;;;19.63;14.90;;;-0.90;99.90;;;;;;6153815;23;20471;-78
2023/01/19 09:21:28;;;;;;;18.00;14.67;;;-0.80;99.90;;;;;;6153589;23;20503;-78
2023/01/19 09:23:57;;;;;;;18.07;14.60;;;-1.00;99.90;;;;;;6154153;23;20809;-78
2023/01/19 09:26:25;;;;;;;16.80;13.77;;;-1.10;99.90;;;;;;6154359;23;20825;-78
2023/01/19 09:28:54;;;;;;;18.23;14.53;;;-1.00;99.90;;;;;;6152841;23;20480;-79
2023/01/19 09:31:22;;;;;;;16.37;12.97;;;-0.90;99.90;;;;;;6154548;23;20409;-78
2023/01/19 09:33:51;;;;;;;15.63;12.50;;;-0.80;99.90;;;;;;6153808;23;20476;-78
2023/01/19 09:36:19;;;;;;;16.73;13.00;;;-0.90;99.90;;;;;;6154093;23;20484;-78
2023/01/19 09:38:47;;;;;;;15.60;12.37;;;-0.80;99.90;;;;;;6154209;23;20406;-78
2023/01/19 09:41:21;;;;;;;14.50;11.87;;;-0.70;99.90;;;;;;6153908;23;20923;-78
2023/01/19 09:43:54;;;;;;;16.33;11.57;;;-0.50;99.90;;;;;;6153882;23;20174;-79
2023/01/19 09:46:29;;;;;;;16.47;11.87;;;-0.30;99.90;;;;;;6153633;23;20440;-78
2023/01/19 09:49:03;;;;;;;16.00;12.70;;;-0.40;99.90;;;;;;6154329;23;20428;-78
2023/01/19 09:51:35;;;;;;;15.17;11.67;;;-0.20;99.90;;;;;;6154447;23;20416;-79
2023/01/19 09:54:10;;;;;;;15.63;12.33;;;0.00;99.90;;;;;;6153981;23;20209;-79
2023/01/19 09:56:41;;;;;;;17.93;12.30;;;-0.10;99.90;;;;;;6153500;23;20181;-79
2023/01/19 09:59:20;;;;;;;14.63;11.90;;;0.00;99.90;;;;;;6153391;23;20464;-79
2023/01/19 10:02:19;;;;;;;20.47;15.77;;;0.20;99.90;;;;;;6154834;23;20232;-78
2023/01/19 10:04:58;;;;;;;14.47;11.90;;;0.10;99.90;;;;;;6155257;23;20581;-78
2023/01/19 10:07:36;;;;;;;13.93;11.40;;;0.00;99.90;;;;;;6156398;23;20641;-78
2023/01/19 10:10:17;;;;;;;15.68;12.82;;;0.20;99.90;;;;;;6155457;23;20488;-78
2023/01/19 10:12:58;;;;;;;17.43;14.00;;;0.10;99.90;;;;;;6155148;23;20216;-78
2023/01/19 10:15:44;;;;;;;16.57;13.47;;;0.20;99.90;;;;;;6155782;23;20170;-79
2023/01/19 10:18:17;;;;;;;19.77;13.63;;;0.10;99.90;;;;;;6155909;23;20176;-77
2023/01/19 10:20:49;;;;;;;14.87;12.47;;;0.10;99.90;;;;;;6156256;23;20440;-77
2023/01/19 10:23:32;;;;;;;15.07;12.90;;;0.10;99.90;;;;;;6155955;23;20543;-79
2023/01/19 10:26:09;;;;;;;14.87;11.90;;;0.10;99.90;;;;;;6156258;23;20244;-79
2023/01/19 10:28:39;;;;;;;16.30;12.67;;;0.20;99.90;;;;;;6156655;23;20260;-79
2023/01/19 10:31:08;;;;;;;18.63;15.23;;;0.20;99.90;;;;;;6155853;23;20188;-80
2023/01/19 10:33:39;;;;;;;30.27;23.80;;;0.20;99.90;;;;;;6156011;23;20260;-79
2023/01/19 10:36:17;;;;;;;31.77;24.67;;;0.20;99.90;;;;;;6156512;23;20417;-78
2023/01/19 10:38:46;;;;;;;15.90;13.87;;;0.30;99.90;;;;;;6155586;23;20166;-79
2023/01/19 10:41:19;;;;;;;13.80;11.37;;;0.20;99.90;;;;;;6156578;23;20186;-80
2023/01/19 10:43:49;;;;;;;14.43;11.93;;;0.20;99.90;;;;;;6155364;23;20217;-80
2023/01/19 10:46:22;;;;;;;12.67;10.40;;;0.30;99.90;;;;;;6156011;23;20166;-80
2023/01/19 10:48:52;;;;;;;13.53;10.90;;;0.30;99.90;;;;;;6155264;23;20193;-79
2023/01/19 10:51:20;;;;;;;13.47;10.53;;;0.30;99.90;;;;;;6156517;23;20178;-79
2023/01/19 10:53:57;;;;;;;13.77;10.80;;;0.30;99.90;;;;;;6155093;23;20181;-79
2023/01/19 10:56:29;;;;;;;12.70;10.90;;;0.30;99.90;;;;;;6155880;23;20397;-78
2023/01/19 10:59:02;;;;;;;14.70;10.83;;;0.50;99.90;;;;;;6154779;23;20189;-79
2023/01/19 11:01:34;;;;;;;13.20;10.20;;;0.50;99.90;;;;;;6155583;23;20250;-79
2023/01/19 11:04:22;;;;;;;14.03;11.07;;;0.40;99.90;;;;;;6154679;23;20641;-78
2023/01/19 11:06:50;;;;;;;12.67;10.40;;;0.60;99.90;;;;;;6155089;23;20181;-80
2023/01/19 11:09:19;;;;;;;13.43;10.37;;;0.90;99.90;;;;;;6154980;23;20201;-81
2023/01/19 11:11:49;;;;;;;14.23;10.10;;;1.10;99.90;;;;;;6155433;23;20188;-82
2023/01/19 11:14:22;;;;;;;13.33;10.33;;;1.20;99.90;;;;;;6156201;23;20272;-84
2023/01/19 11:16:53;;;;;;;12.73;9.73;;;1.70;99.90;;;;;;6155498;23;20162;-84
2023/01/19 11:19:27;;;;;;;11.10;9.10;;;1.80;99.90;;;;;;6156038;23;20505;-86
2023/01/19 11:22:11;;;;;;;10.80;9.30;;;2.10;99.90;;;;;;6153645;23;20393;-85
2023/01/19 11:24:39;;;;;;;11.30;9.17;;;2.50;99.90;;;;;;6156033;23;20188;-84
2023/01/19 11:27:08;;;;;;;12.20;9.07;;;2.30;99.90;;;;;;6155346;23;20177;-85
2023/01/19 11:29:38;;;;;;;10.07;8.93;;;2.40;99.90;;;;;;6155672;23;20212;-84
2023/01/19 11:32:20;;;;;;;11.77;8.33;;;2.50;99.90;;;;;;6155309;23;20510;-83
2023/01/19 11:34:50;;;;;;;9.83;8.30;;;2.20;99.90;;;;;;6154977;23;20193;-83
2023/01/19 11:37:29;;;;;;;10.83;8.23;;;2.30;99.90;;;;;;6155081;23;20264;-82
2023/01/19 11:39:59;;;;;;;11.03;8.23;;;2.40;99.90;;;;;;6154510;23;20166;-82
2023/01/19 11:42:30;;;;;;;11.77;8.37;;;2.30;99.90;;;;;;6154882;23;20190;-83
2023/01/19 11:45:04;;;;;;;10.30;7.83;;;2.60;99.90;;;;;;6155046;23;20185;-82
2023/01/19 11:47:39;;;;;;;10.40;8.10;;;2.60;99.90;;;;;;6155307;23;20233;-82
2023/01/19 11:50:15;;;;;;;10.93;8.80;;;2.40;99.90;;;;;;6153994;23;20196;-81
2023/01/19 11:52:46;;;;;;;10.03;8.00;;;2.30;99.90;;;;;;6154853;23;20172;-80
2023/01/19 11:55:21;;;;;;;11.00;8.60;;;2.10;99.90;;;;;;6155049;23;20273;-82
2023/01/19 11:57:51;;;;;;;11.60;9.23;;;2.00;99.90;;;;;;6154721;23;20724;-81
2023/01/19 12:00:27;;;;;;;10.00;8.20;;;2.10;99.90;;;;;;6154690;23;20204;-79
2023/01/19 12:03:02;;;;;;;18.43;15.60;;;2.30;99.90;;;;;;6152759;23;20551;-80
2023/01/19 12:05:34;;;;;;;9.87;8.17;;;2.30;99.90;;;;;;6154869;23;20487;-81
2023/01/19 12:08:06;;;;;;;11.27;8.43;;;2.30;99.90;;;;;;6154678;23;20189;-81
2023/01/19 12:10:42;;;;;;;10.57;9.00;;;2.30;99.90;;;;;;6153870;23;20197;-82
2023/01/19 12:13:20;;;;;;;15.73;13.03;;;2.20;99.90;;;;;;6154927;23;20169;-80
2023/01/19 12:15:54;;;;;;;28.07;20.90;;;2.20;99.90;;;;;;6154826;23;20216;-81
2023/01/19 12:18:25;;;;;;;12.90;9.47;;;2.20;99.90;;;;;;6155130;23;20065;-81
2023/01/19 12:20:54;;;;;;;13.10;8.83;;;2.40;99.90;;;;;;6154854;23;20249;-79
2023/01/19 12:23:32;;;;;;;12.63;9.20;;;2.40;99.90;;;;;;6154800;23;20192;-80
2023/01/19 12:26:14;;;;;;;11.73;8.20;;;2.40;99.90;;;;;;6154627;23;20526;-81
2023/01/19 12:28:45;;;;;;;13.50;8.63;;;2.50;99.90;;;;;;6154523;23;20166;-81
2023/01/19 12:31:16;;;;;;;11.77;8.10;;;2.50;99.90;;;;;;6154399;23;20194;-80
2023/01/19 12:33:45;;;;;;;12.60;8.33;;;2.40;99.90;;;;;;6154775;23;20491;-80
2023/01/19 12:36:35;;;;;;;9.57;6.87;;;2.50;99.90;;;;;;6154448;23;20192;-80
2023/01/19 12:39:06;;;;;;;9.93;7.73;;;2.20;99.90;;;;;;6154606;23;20185;-81
2023/01/19 12:41:35;;;;;;;9.70;7.13;;;2.30;99.90;;;;;;6154409;23;20208;-80
2023/01/19 12:44:26;;;;;;;10.43;6.97;;;2.30;99.90;;;;;;6154178;23;20216;-79
2023/01/19 12:47:02;;;;;;;9.53;7.00;;;2.40;99.90;;;;;;6154988;23;20488;-80
2023/01/19 12:49:40;;;;;;;10.77;7.67;;;2.30;99.90;;;;;;6154970;23;20172;-79
2023/01/19 12:52:25;;;;;;;10.85;8.57;;;2.20;99.90;;;;;;6153067;23;20393;-79
2023/01/19 12:54:58;;;;;;;8.57;6.77;;;2.00;99.90;;;;;;6153574;23;20197;-78
2023/01/19 12:57:33;;;;;;;10.37;6.83;;;2.00;99.90;;;;;;6154220;23;20201;-79